sensor_id;sensor_type;location;lat;lon;timestamp;pressure;altitude;pressure_sealevel;temperature;humidity
69955;BME280;57279;55.912;37.490;2022-11-12T00:01:33;99236.97;;;7.18;88.81
69955;BME280;57279;55.912;37.490;2022-11-12T00:04:17;99233.78;;;7.21;88.91
69955;BME280;57279;55.912;37.490;2022-11-12T00:07:02;99231.09;;;7.21;89.05
69955;BME280;57279;55.912;37.490;2022-11-12T00:09:46;99205.97;;;7.28;88.89
69955;BME280;57279;55.912;37.490;2022-11-12T00:12:30;99199.69;;;7.22;88.70
69955;BME280;57279;55.912;37.490;2022-11-12T00:15:15;99206.34;;;7.19;88.89
69955;BME280;57279;55.912;37.490;2022-11-12T00:17:59;99215.81;;;7.22;88.76
69955;BME280;57279;55.912;37.490;2022-11-12T00:20:43;99212.69;;;7.13;89.15
69955;BME280;57279;55.912;37.490;2022-11-12T00:23:27;99217.81;;;7.15;89.41
69955;BME280;57279;55.912;37.490;2022-11-12T00:26:12;99206.84;;;7.16;89.33
69955;BME280;57279;55.912;37.490;2022-11-12T00:28:56;99219.16;;;7.29;89.40
69955;BME280;57279;55.912;37.490;2022-11-12T00:31:40;99223.63;;;7.23;89.32
69955;BME280;57279;55.912;37.490;2022-11-12T00:34:24;99216.72;;;7.28;89.58
69955;BME280;57279;55.912;37.490;2022-11-12T00:37:08;99220.38;;;7.38;89.35
69955;BME280;57279;55.912;37.490;2022-11-12T00:39:52;99223.03;;;7.50;89.01
69955;BME280;57279;55.912;37.490;2022-11-12T00:42:38;99221.78;;;7.41;88.96
69955;BME280;57279;55.912;37.490;2022-11-12T00:45:22;99214.38;;;7.48;88.65
69955;BME280;57279;55.912;37.490;2022-11-12T00:48:06;99215.44;;;7.47;88.49
69955;BME280;57279;55.912;37.490;2022-11-12T00:50:58;99227.66;;;7.55;88.38
69955;BME280;57279;55.912;37.490;2022-11-12T00:53:46;99210.88;;;7.48;88.48
69955;BME280;57279;55.912;37.490;2022-11-12T00:56:31;99206.56;;;7.47;88.35
69955;BME280;57279;55.912;37.490;2022-11-12T00:59:15;99199.56;;;7.46;88.71
69955;BME280;57279;55.912;37.490;2022-11-12T01:02:00;99193.78;;;7.54;88.49
69955;BME280;57279;55.912;37.490;2022-11-12T01:04:44;99195.88;;;7.52;88.71
69955;BME280;57279;55.912;37.490;2022-11-12T01:07:28;99185.13;;;7.35;88.83
69955;BME280;57279;55.912;37.490;2022-11-12T01:10:13;99191.03;;;7.49;89.21
69955;BME280;57279;55.912;37.490;2022-11-12T01:12:57;99186.38;;;7.44;89.15
69955;BME280;57279;55.912;37.490;2022-11-12T01:15:41;99176.47;;;7.44;88.94
69955;BME280;57279;55.912;37.490;2022-11-12T01:18:26;99184.66;;;7.38;89.16
69955;BME280;57279;55.912;37.490;2022-11-12T01:21:11;99184.31;;;7.34;89.31
69955;BME280;57279;55.912;37.490;2022-11-12T01:23:57;99185.13;;;7.35;89.43
69955;BME280;57279;55.912;37.490;2022-11-12T01:26:40;99189.16;;;7.49;89.40
69955;BME280;57279;55.912;37.490;2022-11-12T01:29:25;99182.22;;;7.53;89.16
69955;BME280;57279;55.912;37.490;2022-11-12T01:32:09;99174.66;;;7.50;89.07
69955;BME280;57279;55.912;37.490;2022-11-12T01:34:53;99177.03;;;7.47;89.16
69955;BME280;57279;55.912;37.490;2022-11-12T01:37:37;99164.06;;;7.43;89.12
69955;BME280;57279;55.912;37.490;2022-11-12T01:40:21;99167.88;;;7.48;89.09
69955;BME280;57279;55.912;37.490;2022-11-12T01:43:12;99165.53;;;7.51;89.08
69955;BME280;57279;55.912;37.490;2022-11-12T01:45:58;99160.72;;;7.53;88.88
69955;BME280;57279;55.912;37.490;2022-11-12T01:48:54;99160.63;;;7.48;89.11
69955;BME280;57279;55.912;37.490;2022-11-12T01:51:43;99167.75;;;7.54;89.24
69955;BME280;57279;55.912;37.490;2022-11-12T01:54:30;99159.91;;;7.53;89.64
69955;BME280;57279;55.912;37.490;2022-11-12T01:57:17;99159.03;;;7.47;89.19
69955;BME280;57279;55.912;37.490;2022-11-12T02:00:07;99157.22;;;7.53;89.47
69955;BME280;57279;55.912;37.490;2022-11-12T02:02:57;99149.41;;;7.51;89.33
69955;BME280;57279;55.912;37.490;2022-11-12T02:05:42;99141.84;;;7.48;89.45
69955;BME280;57279;55.912;37.490;2022-11-12T02:08:29;99140.22;;;7.47;89.54
69955;BME280;57279;55.912;37.490;2022-11-12T02:11:17;99136.53;;;7.36;89.70
69955;BME280;57279;55.912;37.490;2022-11-12T02:14:01;99140.13;;;7.42;89.71
69955;BME280;57279;55.912;37.490;2022-11-12T02:16:47;99132.72;;;7.49;89.75
69955;BME280;57279;55.912;37.490;2022-11-12T02:19:35;99115.06;;;7.53;89.59
69955;BME280;57279;55.912;37.490;2022-11-12T02:22:20;99129.06;;;7.55;89.59
69955;BME280;57279;55.912;37.490;2022-11-12T02:25:05;99116.75;;;7.59;89.52
69955;BME280;57279;55.912;37.490;2022-11-12T02:27:51;99106.00;;;7.59;89.13
69955;BME280;57279;55.912;37.490;2022-11-12T02:30:46;99119.19;;;7.61;89.36
69955;BME280;57279;55.912;37.490;2022-11-12T02:33:30;99116.69;;;7.54;89.19
69955;BME280;57279;55.912;37.490;2022-11-12T02:36:14;99104.47;;;7.63;89.11
69955;BME280;57279;55.912;37.490;2022-11-12T02:38:58;99107.06;;;7.75;89.11
69955;BME280;57279;55.912;37.490;2022-11-12T02:41:42;99121.66;;;7.62;88.61
69955;BME280;57279;55.912;37.490;2022-11-12T02:44:27;99116.50;;;7.61;88.55
69955;BME280;57279;55.912;37.490;2022-11-12T02:47:11;99103.88;;;7.61;88.72
69955;BME280;57279;55.912;37.490;2022-11-12T02:49:56;99109.91;;;7.69;88.69
69955;BME280;57279;55.912;37.490;2022-11-12T02:52:40;99108.44;;;7.78;88.64
69955;BME280;57279;55.912;37.490;2022-11-12T02:55:24;99112.47;;;7.80;88.39
69955;BME280;57279;55.912;37.490;2022-11-12T02:58:09;99116.38;;;7.90;88.09
69955;BME280;57279;55.912;37.490;2022-11-12T03:00:54;99120.13;;;7.89;88.07
69955;BME280;57279;55.912;37.490;2022-11-12T03:03:38;99106.38;;;7.85;87.92
69955;BME280;57279;55.912;37.490;2022-11-12T03:06:22;99113.13;;;7.88;88.13
69955;BME280;57279;55.912;37.490;2022-11-12T03:09:07;99102.56;;;7.81;88.49
69955;BME280;57279;55.912;37.490;2022-11-12T03:11:51;99115.31;;;7.91;87.97
69955;BME280;57279;55.912;37.490;2022-11-12T03:14:35;99101.38;;;7.94;88.06
69955;BME280;57279;55.912;37.490;2022-11-12T03:17:19;99082.75;;;7.87;88.17
69955;BME280;57279;55.912;37.490;2022-11-12T03:20:04;99072.31;;;7.91;88.12
69955;BME280;57279;55.912;37.490;2022-11-12T03:23:01;99064.50;;;7.89;88.36
69955;BME280;57279;55.912;37.490;2022-11-12T03:25:46;99073.94;;;7.92;88.11
69955;BME280;57279;55.912;37.490;2022-11-12T03:28:30;99078.00;;;7.94;88.05
69955;BME280;57279;55.912;37.490;2022-11-12T03:31:15;99081.75;;;7.93;88.31
69955;BME280;57279;55.912;37.490;2022-11-12T03:33:59;99073.44;;;7.95;88.37
69955;BME280;57279;55.912;37.490;2022-11-12T03:36:43;99071.50;;;7.90;88.58
69955;BME280;57279;55.912;37.490;2022-11-12T03:39:27;99086.00;;;7.89;88.49
69955;BME280;57279;55.912;37.490;2022-11-12T03:42:12;99084.06;;;7.85;88.57
69955;BME280;57279;55.912;37.490;2022-11-12T03:44:56;99096.34;;;7.80;88.76
69955;BME280;57279;55.912;37.490;2022-11-12T03:47:49;99081.94;;;7.87;88.80
69955;BME280;57279;55.912;37.490;2022-11-12T03:50:33;99078.41;;;7.86;88.80
69955;BME280;57279;55.912;37.490;2022-11-12T03:53:17;99066.56;;;7.82;88.77
69955;BME280;57279;55.912;37.490;2022-11-12T03:56:02;99068.56;;;7.92;88.93
69955;BME280;57279;55.912;37.490;2022-11-12T03:58:46;99064.56;;;7.94;88.72
69955;BME280;57279;55.912;37.490;2022-11-12T04:01:30;99048.19;;;7.96;88.58
69955;BME280;57279;55.912;37.490;2022-11-12T04:04:14;99049.25;;;7.95;88.79
69955;BME280;57279;55.912;37.490;2022-11-12T04:06:59;99045.38;;;7.86;88.79
69955;BME280;57279;55.912;37.490;2022-11-12T04:10:02;99026.56;;;7.86;88.69
69955;BME280;57279;55.912;37.490;2022-11-12T04:12:46;99030.91;;;7.92;88.74
69955;BME280;57279;55.912;37.490;2022-11-12T04:15:49;99037.72;;;7.99;88.56
69955;BME280;57279;55.912;37.490;2022-11-12T04:18:53;99033.13;;;7.95;88.85
69955;BME280;57279;55.912;37.490;2022-11-12T04:21:59;99034.56;;;8.02;88.42
69955;BME280;57279;55.912;37.490;2022-11-12T04:24:43;99037.00;;;8.04;88.33
69955;BME280;57279;55.912;37.490;2022-11-12T04:27:46;99033.53;;;8.09;87.92
69955;BME280;57279;55.912;37.490;2022-11-12T04:30:30;99036.53;;;8.12;87.77
69955;BME280;57279;55.912;37.490;2022-11-12T04:33:14;99042.44;;;8.09;88.00
69955;BME280;57279;55.912;37.490;2022-11-12T04:35:58;99031.31;;;8.00;88.12
69955;BME280;57279;55.912;37.490;2022-11-12T04:38:42;99024.97;;;8.12;87.76
69955;BME280;57279;55.912;37.490;2022-11-12T04:41:27;99030.38;;;8.12;87.83
69955;BME280;57279;55.912;37.490;2022-11-12T04:44:29;99033.84;;;8.12;88.04
69955;BME280;57279;55.912;37.490;2022-11-12T04:47:39;99032.56;;;8.15;87.94
69955;BME280;57279;55.912;37.490;2022-11-12T04:50:23;99029.88;;;8.15;87.85
69955;BME280;57279;55.912;37.490;2022-11-12T04:53:08;99026.66;;;8.18;88.00
69955;BME280;57279;55.912;37.490;2022-11-12T04:55:54;99023.16;;;8.17;87.87
69955;BME280;57279;55.912;37.490;2022-11-12T04:58:38;99028.03;;;8.20;88.02
69955;BME280;57279;55.912;37.490;2022-11-12T05:01:23;99031.69;;;8.09;88.16
69955;BME280;57279;55.912;37.490;2022-11-12T05:04:07;99023.91;;;8.13;88.18
69955;BME280;57279;55.912;37.490;2022-11-12T05:06:52;99012.59;;;8.11;88.41
69955;BME280;57279;55.912;37.490;2022-11-12T05:09:37;99001.09;;;8.15;88.41
69955;BME280;57279;55.912;37.490;2022-11-12T05:12:21;99003.00;;;8.20;88.04
69955;BME280;57279;55.912;37.490;2022-11-12T05:15:06;99011.06;;;8.20;87.92
69955;BME280;57279;55.912;37.490;2022-11-12T05:17:50;99002.38;;;8.13;88.01
69955;BME280;57279;55.912;37.490;2022-11-12T05:20:35;99007.78;;;8.13;88.02
69955;BME280;57279;55.912;37.490;2022-11-12T05:23:19;99007.09;;;8.22;88.14
69955;BME280;57279;55.912;37.490;2022-11-12T05:26:03;99013.34;;;8.28;88.00
69955;BME280;57279;55.912;37.490;2022-11-12T05:28:47;99005.69;;;8.20;88.01
69955;BME280;57279;55.912;37.490;2022-11-12T05:31:32;99018.72;;;8.28;87.97
69955;BME280;57279;55.912;37.490;2022-11-12T05:34:16;99008.78;;;8.34;87.58
69955;BME280;57279;55.912;37.490;2022-11-12T05:37:02;99010.19;;;8.36;87.21
69955;BME280;57279;55.912;37.490;2022-11-12T05:39:47;99009.63;;;8.34;87.14
69955;BME280;57279;55.912;37.490;2022-11-12T05:42:31;99015.03;;;8.39;87.28
69955;BME280;57279;55.912;37.490;2022-11-12T05:45:15;99008.38;;;8.42;87.10
69955;BME280;57279;55.912;37.490;2022-11-12T05:48:00;99003.63;;;8.49;86.87
69955;BME280;57279;55.912;37.490;2022-11-12T05:50:44;99000.63;;;8.46;86.76
69955;BME280;57279;55.912;37.490;2022-11-12T05:53:32;99003.31;;;8.46;86.94
69955;BME280;57279;55.912;37.490;2022-11-12T05:56:16;99009.19;;;8.43;87.20
69955;BME280;57279;55.912;37.490;2022-11-12T05:59:02;99021.31;;;8.45;87.03
69955;BME280;57279;55.912;37.490;2022-11-12T06:01:47;99012.34;;;8.39;87.11
69955;BME280;57279;55.912;37.490;2022-11-12T06:04:31;99006.31;;;8.49;87.10
69955;BME280;57279;55.912;37.490;2022-11-12T06:07:15;98979.69;;;8.53;87.00
69955;BME280;57279;55.912;37.490;2022-11-12T06:10:00;98991.59;;;8.57;86.98
69955;BME280;57279;55.912;37.490;2022-11-12T06:12:44;98978.72;;;8.64;86.55
69955;BME280;57279;55.912;37.490;2022-11-12T06:15:28;98982.53;;;8.68;86.29
69955;BME280;57279;55.912;37.490;2022-11-12T06:18:12;98975.13;;;8.53;86.24
69955;BME280;57279;55.912;37.490;2022-11-12T06:21:07;98984.09;;;8.64;86.26
69955;BME280;57279;55.912;37.490;2022-11-12T06:24:08;98992.72;;;8.66;85.95
69955;BME280;57279;55.912;37.490;2022-11-12T06:26:52;98996.50;;;8.65;86.38
69955;BME280;57279;55.912;37.490;2022-11-12T06:29:37;98980.91;;;8.67;85.96
69955;BME280;57279;55.912;37.490;2022-11-12T06:32:22;98986.03;;;8.69;85.99
69955;BME280;57279;55.912;37.490;2022-11-12T06:35:07;98994.41;;;8.72;85.68
69955;BME280;57279;55.912;37.490;2022-11-12T06:37:51;98987.91;;;8.68;85.93
69955;BME280;57279;55.912;37.490;2022-11-12T06:40:36;98971.22;;;8.71;85.84
69955;BME280;57279;55.912;37.490;2022-11-12T06:43:20;98960.34;;;8.88;85.87
69955;BME280;57279;55.912;37.490;2022-11-12T06:46:11;98964.81;;;8.77;85.97
69955;BME280;57279;55.912;37.490;2022-11-12T06:48:55;98958.34;;;8.73;86.12
69955;BME280;57279;55.912;37.490;2022-11-12T06:51:40;98957.03;;;8.76;85.97
69955;BME280;57279;55.912;37.490;2022-11-12T06:54:24;98960.69;;;8.65;86.22
69955;BME280;57279;55.912;37.490;2022-11-12T06:57:08;98948.66;;;8.72;86.44
69955;BME280;57279;55.912;37.490;2022-11-12T06:59:53;98941.69;;;8.76;86.31
69955;BME280;57279;55.912;37.490;2022-11-12T07:02:37;98931.94;;;8.70;86.21
69955;BME280;57279;55.912;37.490;2022-11-12T07:05:21;98925.47;;;8.71;86.12
69955;BME280;57279;55.912;37.490;2022-11-12T07:08:06;98918.25;;;8.77;86.23
69955;BME280;57279;55.912;37.490;2022-11-12T07:10:55;98911.81;;;8.78;86.04
69955;BME280;57279;55.912;37.490;2022-11-12T07:13:40;98906.22;;;8.90;85.75
69955;BME280;57279;55.912;37.490;2022-11-12T07:16:24;98903.78;;;8.88;85.75
69955;BME280;57279;55.912;37.490;2022-11-12T07:19:08;98903.25;;;8.86;85.80
69955;BME280;57279;55.912;37.490;2022-11-12T07:21:52;98897.09;;;8.96;85.64
69955;BME280;57279;55.912;37.490;2022-11-12T07:24:37;98898.16;;;8.90;85.93
69955;BME280;57279;55.912;37.490;2022-11-12T07:27:21;98876.66;;;9.00;85.72
69955;BME280;57279;55.912;37.490;2022-11-12T07:30:06;98886.34;;;8.96;85.66
69955;BME280;57279;55.912;37.490;2022-11-12T07:32:51;98879.06;;;8.96;85.50
69955;BME280;57279;55.912;37.490;2022-11-12T07:35:36;98881.84;;;9.07;85.61
69955;BME280;57279;55.912;37.490;2022-11-12T07:38:20;98878.22;;;8.91;85.47
69955;BME280;57279;55.912;37.490;2022-11-12T07:43:56;98870.19;;;8.96;85.60
69955;BME280;57279;55.912;37.490;2022-11-12T07:46:40;98871.78;;;8.92;85.58
69955;BME280;57279;55.912;37.490;2022-11-12T07:49:24;98861.03;;;8.97;85.66
69955;BME280;57279;55.912;37.490;2022-11-12T07:52:08;98860.00;;;9.03;85.30
69955;BME280;57279;55.912;37.490;2022-11-12T07:54:53;98858.91;;;9.04;85.51
69955;BME280;57279;55.912;37.490;2022-11-12T07:57:37;98863.56;;;9.14;85.51
69955;BME280;57279;55.912;37.490;2022-11-12T08:00:21;98853.53;;;9.04;85.23
69955;BME280;57279;55.912;37.490;2022-11-12T08:03:06;98853.53;;;9.04;85.47
69955;BME280;57279;55.912;37.490;2022-11-12T08:05:50;98856.22;;;9.04;85.67
69955;BME280;57279;55.912;37.490;2022-11-12T08:08:35;98851.66;;;9.10;85.81
69955;BME280;57279;55.912;37.490;2022-11-12T08:11:19;98837.91;;;9.06;85.89
69955;BME280;57279;55.912;37.490;2022-11-12T08:14:04;98838.50;;;9.08;85.88
69955;BME280;57279;55.912;37.490;2022-11-12T08:16:48;98820.91;;;8.95;85.98
69955;BME280;57279;55.912;37.490;2022-11-12T08:19:32;98831.94;;;8.94;86.53
69955;BME280;57279;55.912;37.490;2022-11-12T08:22:16;98818.16;;;8.85;86.97
69955;BME280;57279;55.912;37.490;2022-11-12T08:25:00;98802.63;;;8.97;86.85
69955;BME280;57279;55.912;37.490;2022-11-12T08:27:45;98788.91;;;9.04;86.91
69955;BME280;57279;55.912;37.490;2022-11-12T08:30:29;98792.13;;;9.01;86.72
69955;BME280;57279;55.912;37.490;2022-11-12T08:33:13;98784.06;;;9.01;86.73
69955;BME280;57279;55.912;37.490;2022-11-12T08:36:00;98778.13;;;8.99;86.58
69955;BME280;57279;55.912;37.490;2022-11-12T08:38:45;98782.13;;;8.91;86.86
69955;BME280;57279;55.912;37.490;2022-11-12T08:41:29;98777.03;;;8.95;87.24
69955;BME280;57279;55.912;37.490;2022-11-12T08:44:14;98782.94;;;8.92;87.39
69955;BME280;57279;55.912;37.490;2022-11-12T08:46:57;98779.25;;;9.13;87.58
69955;BME280;57279;55.912;37.490;2022-11-12T08:49:42;98768.72;;;9.12;86.84
69955;BME280;57279;55.912;37.490;2022-11-12T08:52:26;98764.16;;;9.07;86.64
69955;BME280;57279;55.912;37.490;2022-11-12T08:55:11;98751.19;;;8.99;86.47
69955;BME280;57279;55.912;37.490;2022-11-12T08:57:55;98741.47;;;8.93;86.80
69955;BME280;57279;55.912;37.490;2022-11-12T09:00:42;98733.13;;;8.94;87.30
69955;BME280;57279;55.912;37.490;2022-11-12T09:03:27;98726.72;;;9.00;87.02
69955;BME280;57279;55.912;37.490;2022-11-12T09:06:11;98730.19;;;9.01;87.04
69955;BME280;57279;55.912;37.490;2022-11-12T09:08:55;98721.56;;;8.94;87.23
69955;BME280;57279;55.912;37.490;2022-11-12T09:11:39;98732.88;;;8.96;87.15
69955;BME280;57279;55.912;37.490;2022-11-12T09:14:24;98718.28;;;8.87;87.45
69955;BME280;57279;55.912;37.490;2022-11-12T09:17:09;98704.84;;;8.92;87.63
69955;BME280;57279;55.912;37.490;2022-11-12T09:19:53;98702.19;;;9.02;87.67
69955;BME280;57279;55.912;37.490;2022-11-12T09:22:37;98680.38;;;9.04;87.38
69955;BME280;57279;55.912;37.490;2022-11-12T09:25:22;98677.13;;;8.96;87.33
69955;BME280;57279;55.912;37.490;2022-11-12T09:28:10;98676.03;;;8.92;87.74
69955;BME280;57279;55.912;37.490;2022-11-12T09:30:55;98677.69;;;8.93;87.82
69955;BME280;57279;55.912;37.490;2022-11-12T09:33:39;98668.53;;;8.89;87.95
69955;BME280;57279;55.912;37.490;2022-11-12T09:36:23;98659.91;;;8.92;87.99
69955;BME280;57279;55.912;37.490;2022-11-12T09:39:07;98642.13;;;8.91;87.97
69955;BME280;57279;55.912;37.490;2022-11-12T09:41:52;98636.47;;;8.93;87.82
69955;BME280;57279;55.912;37.490;2022-11-12T09:44:38;98633.00;;;9.03;87.80
69955;BME280;57279;55.912;37.490;2022-11-12T09:47:33;98640.28;;;9.07;87.58
69955;BME280;57279;55.912;37.490;2022-11-12T09:50:26;98636.25;;;9.15;87.24
69955;BME280;57279;55.912;37.490;2022-11-12T09:53:35;98625.44;;;9.10;87.42
69955;BME280;57279;55.912;37.490;2022-11-12T09:56:24;98614.44;;;9.16;87.24
69955;BME280;57279;55.912;37.490;2022-11-12T09:59:11;98616.59;;;9.25;87.30
69955;BME280;57279;55.912;37.490;2022-11-12T10:02:26;98599.34;;;9.15;86.99
69955;BME280;57279;55.912;37.490;2022-11-12T10:05:40;98589.13;;;9.12;87.07
69955;BME280;57279;55.912;37.490;2022-11-12T10:12:37;98582.66;;;9.18;87.29
69955;BME280;57279;55.912;37.490;2022-11-12T10:24:41;98579.69;;;9.35;86.47
69955;BME280;57279;55.912;37.490;2022-11-12T10:27:35;98586.94;;;9.40;86.26
69955;BME280;57279;55.912;37.490;2022-11-12T10:30:24;98575.38;;;9.39;86.58
69955;BME280;57279;55.912;37.490;2022-11-12T10:33:13;98582.63;;;9.44;86.82
69955;BME280;57279;55.912;37.490;2022-11-12T10:38:54;98577.78;;;9.51;86.65
69955;BME280;57279;55.912;37.490;2022-11-12T10:41:39;98566.72;;;9.53;86.63
69955;BME280;57279;55.912;37.490;2022-11-12T10:44:25;98556.25;;;9.46;86.75
69955;BME280;57279;55.912;37.490;2022-11-12T10:47:29;98551.94;;;9.30;87.21
69955;BME280;57279;55.912;37.490;2022-11-12T10:50:26;98550.31;;;9.39;87.45
69955;BME280;57279;55.912;37.490;2022-11-12T10:53:38;98542.75;;;9.36;87.69
69955;BME280;57279;55.912;37.490;2022-11-12T10:59:22;98523.38;;;9.39;87.85
69955;BME280;57279;55.912;37.490;2022-11-12T11:02:17;98527.44;;;9.31;87.75
69955;BME280;57279;55.912;37.490;2022-11-12T11:08:11;98512.06;;;9.32;88.16
69955;BME280;57279;55.912;37.490;2022-11-12T11:17:15;98470.59;;;9.23;88.80
69955;BME280;57279;55.912;37.490;2022-11-12T11:20:00;98466.31;;;9.22;88.91
69955;BME280;57279;55.912;37.490;2022-11-12T11:22:45;98468.97;;;9.32;88.70
69955;BME280;57279;55.912;37.490;2022-11-12T11:25:37;98453.91;;;9.26;88.84
69955;BME280;57279;55.912;37.490;2022-11-12T11:28:38;98450.63;;;9.34;88.69
69955;BME280;57279;55.912;37.490;2022-11-12T11:34:41;98424.53;;;9.24;89.02
69955;BME280;57279;55.912;37.490;2022-11-12T11:37:29;98424.28;;;9.15;89.16
69955;BME280;57279;55.912;37.490;2022-11-12T11:40:31;98417.03;;;9.16;89.29
69955;BME280;57279;55.912;37.490;2022-11-12T11:52:45;98403.56;;;9.11;90.45
69955;BME280;57279;55.912;37.490;2022-11-12T11:58:39;98383.41;;;9.03;90.61
69955;BME280;57279;55.912;37.490;2022-11-12T12:05:02;98378.25;;;9.12;90.93
69955;BME280;57279;55.912;37.490;2022-11-12T12:08:04;98367.47;;;9.12;90.87
69955;BME280;57279;55.912;37.490;2022-11-12T12:14:09;98352.97;;;9.03;90.94
69955;BME280;57279;55.912;37.490;2022-11-12T12:20:22;98345.41;;;9.10;91.07
69955;BME280;57279;55.912;37.490;2022-11-12T12:26:24;98326.03;;;9.08;91.08
69955;BME280;57279;55.912;37.490;2022-11-12T12:32:45;98319.78;;;9.23;90.96
69955;BME280;57279;55.912;37.490;2022-11-12T12:35:33;98321.13;;;9.20;91.09
69955;BME280;57279;55.912;37.490;2022-11-12T12:38:40;98320.28;;;9.30;90.55
69955;BME280;57279;55.912;37.490;2022-11-12T12:41:36;98308.97;;;9.33;90.49
69955;BME280;57279;55.912;37.490;2022-11-12T12:44:23;98305.19;;;9.34;90.20
69955;BME280;57279;55.912;37.490;2022-11-12T12:47:39;98308.09;;;9.43;89.97
69955;BME280;57279;55.912;37.490;2022-11-12T12:50:26;98305.97;;;9.39;89.89
69955;BME280;57279;55.912;37.490;2022-11-12T12:56:05;98280.28;;;9.52;89.42
69955;BME280;57279;55.912;37.490;2022-11-12T12:58:50;98274.06;;;9.52;89.23
69955;BME280;57279;55.912;37.490;2022-11-12T13:01:35;98266.81;;;9.52;89.49
69955;BME280;57279;55.912;37.490;2022-11-12T13:04:48;98270.34;;;9.48;89.57
69955;BME280;57279;55.912;37.490;2022-11-12T13:07:43;98277.09;;;9.45;89.75
69955;BME280;57279;55.912;37.490;2022-11-12T13:16:06;98278.41;;;9.53;89.91
69955;BME280;57279;55.912;37.490;2022-11-12T13:21:35;98255.44;;;9.61;89.98
69955;BME280;57279;55.912;37.490;2022-11-12T13:33:24;98273.25;;;9.56;90.11
69955;BME280;57279;55.912;37.490;2022-11-12T13:36:26;98267.06;;;9.56;89.90
69955;BME280;57279;55.912;37.490;2022-11-12T13:39:13;98263.00;;;9.58;90.07
69955;BME280;57279;55.912;37.490;2022-11-12T13:41:59;98272.72;;;9.59;89.84
69955;BME280;57279;55.912;37.490;2022-11-12T13:45:04;98274.00;;;9.67;89.45
69955;BME280;57279;55.912;37.490;2022-11-12T13:47:49;98290.97;;;9.68;89.84
69955;BME280;57279;55.912;37.490;2022-11-12T13:50:35;98294.47;;;9.68;89.76
69955;BME280;57279;55.912;37.490;2022-11-12T13:53:23;98284.53;;;9.64;89.59
69955;BME280;57279;55.912;37.490;2022-11-12T13:56:09;98291.16;;;9.76;89.58
69955;BME280;57279;55.912;37.490;2022-11-12T13:59:07;98300.84;;;9.83;89.39
69955;BME280;57279;55.912;37.490;2022-11-12T14:01:51;98300.53;;;9.84;89.39
69955;BME280;57279;55.912;37.490;2022-11-12T14:04:37;98286.28;;;9.78;89.69
69955;BME280;57279;55.912;37.490;2022-11-12T14:08:04;98290.88;;;9.78;89.99
69955;BME280;57279;55.912;37.490;2022-11-12T14:18:15;98284.19;;;9.75;90.38
69955;BME280;57279;55.912;37.490;2022-11-12T14:21:08;98288.19;;;9.78;90.77
69955;BME280;57279;55.912;37.490;2022-11-12T14:23:54;98298.09;;;9.88;90.97
69955;BME280;57279;55.912;37.490;2022-11-12T14:26:41;98290.53;;;9.90;90.68
69955;BME280;57279;55.912;37.490;2022-11-12T14:29:25;98286.53;;;9.82;90.91
69955;BME280;57279;55.912;37.490;2022-11-12T14:32:10;98293.03;;;9.81;90.88
69955;BME280;57279;55.912;37.490;2022-11-12T14:34:54;98295.38;;;9.93;90.80
69955;BME280;57279;55.912;37.490;2022-11-12T14:37:39;98293.22;;;9.90;90.41
69955;BME280;57279;55.912;37.490;2022-11-12T14:40:32;98305.03;;;9.99;90.68
69955;BME280;57279;55.912;37.490;2022-11-12T14:46:34;98293.41;;;10.04;90.10
69955;BME280;57279;55.912;37.490;2022-11-12T14:49:41;98279.84;;;10.09;89.74
69955;BME280;57279;55.912;37.490;2022-11-12T14:52:30;98294.94;;;10.15;89.31
69955;BME280;57279;55.912;37.490;2022-11-12T14:55:27;98289.53;;;10.15;89.46
69955;BME280;57279;55.912;37.490;2022-11-12T14:58:16;98300.88;;;10.12;89.53
69955;BME280;57279;55.912;37.490;2022-11-12T15:01:18;98288.72;;;10.14;89.48
69955;BME280;57279;55.912;37.490;2022-11-12T15:04:15;98294.09;;;10.14;89.54
69955;BME280;57279;55.912;37.490;2022-11-12T15:07:00;98285.75;;;10.16;89.49
69955;BME280;57279;55.912;37.490;2022-11-12T15:09:44;98294.34;;;10.18;89.52
69955;BME280;57279;55.912;37.490;2022-11-12T15:12:30;98290.06;;;10.17;89.32
69955;BME280;57279;55.912;37.490;2022-11-12T15:15:20;98270.59;;;10.20;89.26
69955;BME280;57279;55.912;37.490;2022-11-12T15:18:16;98283.03;;;10.16;89.31
69955;BME280;57279;55.912;37.490;2022-11-12T15:24:01;98280.31;;;10.21;88.71
69955;BME280;57279;55.912;37.490;2022-11-12T15:26:47;98274.03;;;10.31;88.66
69955;BME280;57279;55.912;37.490;2022-11-12T15:29:34;98270.28;;;10.32;88.62
69955;BME280;57279;55.912;37.490;2022-11-12T15:35:03;98284.28;;;10.34;87.53
69955;BME280;57279;55.912;37.490;2022-11-12T15:37:48;98289.59;;;10.39;87.30
69955;BME280;57279;55.912;37.490;2022-11-12T15:40:40;98285.47;;;10.47;86.79
69955;BME280;57279;55.912;37.490;2022-11-12T15:43:31;98279.28;;;10.46;86.54
69955;BME280;57279;55.912;37.490;2022-11-12T15:46:17;98286.38;;;10.37;86.45
69955;BME280;57279;55.912;37.490;2022-11-12T15:49:02;98266.47;;;10.33;86.25
69955;BME280;57279;55.912;37.490;2022-11-12T15:51:46;98269.41;;;10.36;85.56
69955;BME280;57279;55.912;37.490;2022-11-12T15:54:30;98260.44;;;10.41;85.12
69955;BME280;57279;55.912;37.490;2022-11-12T15:57:15;98268.84;;;10.40;85.06
69955;BME280;57279;55.912;37.490;2022-11-12T16:00:06;98278.53;;;10.41;85.08
69955;BME280;57279;55.912;37.490;2022-11-12T16:03:09;98269.38;;;10.42;85.48
69955;BME280;57279;55.912;37.490;2022-11-12T16:05:55;98276.97;;;10.34;86.01
69955;BME280;57279;55.912;37.490;2022-11-12T16:08:39;98266.19;;;10.34;86.01
69955;BME280;57279;55.912;37.490;2022-11-12T16:11:23;98264.88;;;10.32;86.06
69955;BME280;57279;55.912;37.490;2022-11-12T16:14:20;98290.47;;;10.29;85.75
69955;BME280;57279;55.912;37.490;2022-11-12T16:17:09;98298.03;;;10.32;85.48
69955;BME280;57279;55.912;37.490;2022-11-12T16:19:54;98288.56;;;10.30;85.09
69955;BME280;57279;55.912;37.490;2022-11-12T16:22:38;98289.69;;;10.34;83.88
69955;BME280;57279;55.912;37.490;2022-11-12T16:25:24;98288.00;;;10.38;83.31
69955;BME280;57279;55.912;37.490;2022-11-12T16:28:15;98276.13;;;10.39;83.48